createdAt,value
2018-08-27T00:00:07.615Z,2.30
2018-08-27T00:02:36.041Z,4.03
2018-08-27T00:05:04.583Z,6.43
2018-08-27T00:07:33.071Z,2.70
2018-08-27T00:10:01.542Z,3.57
2018-08-27T00:12:30.024Z,6.03
2018-08-27T00:14:58.504Z,3.80
2018-08-27T00:17:26.951Z,2.10
2018-08-27T00:19:55.370Z,2.60
2018-08-27T00:22:23.846Z,7.60
2018-08-27T00:24:52.309Z,2.67
2018-08-27T00:27:20.745Z,1.53
2018-08-27T00:29:49.193Z,5.70
2018-08-27T00:32:17.648Z,3.90
2018-08-27T00:34:46.097Z,4.33
2018-08-27T00:37:14.564Z,4.07
2018-08-27T00:39:43.014Z,2.27
2018-08-27T00:42:11.481Z,1.77
2018-08-27T00:44:39.926Z,12.80
2018-08-27T00:47:08.375Z,1.80
2018-08-27T00:49:36.814Z,6.30
2018-08-27T00:52:05.292Z,9.17
2018-08-27T00:54:33.733Z,6.67
2018-08-27T00:57:02.212Z,1.43
2018-08-27T00:59:30.711Z,3.27
2018-08-27T01:01:59.149Z,4.97
2018-08-27T01:04:27.599Z,2.40
2018-08-27T01:06:56.044Z,3.67
2018-08-27T01:09:24.532Z,4.80
2018-08-27T01:11:53.189Z,2.07
2018-08-27T01:14:21.822Z,6.77
2018-08-27T01:16:50.888Z,2.60
2018-08-27T01:19:19.353Z,2.43
2018-08-27T01:21:47.815Z,2.37
2018-08-27T01:24:16.605Z,5.27
2018-08-27T01:26:45.616Z,4.07
2018-08-27T01:29:14.478Z,3.20
2018-08-27T01:31:43.046Z,4.70
2018-08-27T01:34:11.481Z,2.17
2018-08-27T01:36:39.960Z,6.03
2018-08-27T01:39:08.917Z,3.40
2018-08-27T01:41:37.373Z,2.60
2018-08-27T01:44:06.353Z,2.80
2018-08-27T01:46:34.838Z,3.20
2018-08-27T01:49:03.302Z,5.10
2018-08-27T01:51:31.821Z,2.10
2018-08-27T01:54:00.332Z,2.73
2018-08-27T01:56:28.769Z,3.17
2018-08-27T01:58:57.213Z,5.70
2018-08-27T02:01:25.662Z,3.00
2018-08-27T02:03:54.077Z,4.90
2018-08-27T02:06:22.577Z,4.70
2018-08-27T02:08:51.039Z,6.00
2018-08-27T02:11:19.546Z,4.53
2018-08-27T02:13:47.990Z,3.73
2018-08-27T02:16:16.450Z,9.20
2018-08-27T02:18:44.882Z,2.10
2018-08-27T02:21:13.334Z,4.77
2018-08-27T02:23:41.794Z,2.17
2018-08-27T02:26:10.271Z,2.57
2018-08-27T02:28:38.710Z,6.60
2018-08-27T02:31:07.162Z,2.33
2018-08-27T02:33:35.609Z,1.97
2018-08-27T02:36:04.060Z,2.10
2018-08-27T02:38:32.523Z,2.00
2018-08-27T02:41:00.983Z,3.87
2018-08-27T02:43:29.446Z,4.30
2018-08-27T02:45:57.890Z,3.57
2018-08-27T02:48:26.325Z,3.83
2018-08-27T02:50:54.769Z,2.77
2018-08-27T02:53:23.227Z,1.70
2018-08-27T02:55:51.702Z,3.93
2018-08-27T02:58:20.160Z,5.57
2018-08-27T03:00:48.623Z,4.93
2018-08-27T03:03:17.107Z,5.70
2018-08-27T03:05:45.575Z,2.43
2018-08-27T03:08:14.026Z,2.53
2018-08-27T03:10:42.569Z,6.83
2018-08-27T03:13:11.012Z,3.37
2018-08-27T03:15:39.610Z,2.60
2018-08-27T03:18:08.074Z,2.30
2018-08-27T03:20:36.889Z,3.20
2018-08-27T03:23:05.341Z,2.77
2018-08-27T03:25:33.805Z,2.90
2018-08-27T03:28:02.227Z,5.87
2018-08-27T03:30:30.711Z,2.63
2018-08-27T03:32:59.210Z,11.50
2018-08-27T03:35:27.630Z,5.87
2018-08-27T03:37:56.072Z,4.70
2018-08-27T03:40:24.562Z,2.70
2018-08-27T03:42:52.985Z,3.57
2018-08-27T03:45:21.479Z,7.90
2018-08-27T03:47:49.944Z,2.90
2018-08-27T03:50:18.479Z,3.77
2018-08-27T03:52:46.914Z,3.27
2018-08-27T03:55:15.351Z,2.90
2018-08-27T03:57:43.801Z,6.80
2018-08-27T04:00:12.258Z,2.73
2018-08-27T04:02:40.717Z,4.60
2018-08-27T04:05:09.198Z,3.00
2018-08-27T04:07:37.775Z,3.97
2018-08-27T04:10:06.238Z,3.70
2018-08-27T04:12:34.685Z,3.27
2018-08-27T04:15:03.447Z,3.53
2018-08-27T04:17:32.826Z,5.17
2018-08-27T04:20:02.745Z,4.63
2018-08-27T04:22:31.274Z,5.10
2018-08-27T04:24:59.994Z,2.40
2018-08-27T04:27:28.479Z,4.33
2018-08-27T04:29:56.899Z,2.70
2018-08-27T04:32:25.350Z,4.70
2018-08-27T04:34:53.815Z,2.90
2018-08-27T04:37:22.725Z,5.03
2018-08-27T04:39:51.247Z,2.50
2018-08-27T04:42:19.705Z,3.90
2018-08-27T04:44:48.147Z,4.00
2018-08-27T04:47:16.620Z,9.23
2018-08-27T04:49:45.043Z,2.97
2018-08-27T04:52:13.486Z,5.30
2018-08-27T04:54:41.940Z,5.60
2018-08-27T04:57:10.400Z,6.23
2018-08-27T04:59:42.705Z,7.23
2018-08-27T05:02:11.179Z,3.53
2018-08-27T05:04:39.611Z,3.00
2018-08-27T05:07:08.079Z,4.20
2018-08-27T05:09:36.501Z,3.27
2018-08-27T05:12:04.978Z,6.13
2018-08-27T05:14:33.483Z,9.07
2018-08-27T05:17:01.929Z,4.07
2018-08-27T05:19:30.382Z,4.30
2018-08-27T05:21:58.829Z,10.70
2018-08-27T05:24:27.275Z,3.67
2018-08-27T05:26:55.832Z,2.30
2018-08-27T05:29:24.273Z,3.60
2018-08-27T05:31:52.731Z,3.07
2018-08-27T05:34:21.160Z,6.27
2018-08-27T05:36:49.630Z,4.10
2018-08-27T05:39:18.060Z,1.77
2018-08-27T05:41:46.523Z,2.00
2018-08-27T05:44:14.964Z,2.20
2018-08-27T05:46:43.398Z,5.60
2018-08-27T05:49:11.821Z,2.20
2018-08-27T05:51:40.266Z,6.00
2018-08-27T05:54:08.689Z,2.50
2018-08-27T05:56:37.130Z,2.37
2018-08-27T05:59:05.555Z,2.10
2018-08-27T06:01:34.096Z,2.40
2018-08-27T06:04:02.478Z,6.33
2018-08-27T06:06:31.160Z,2.20
2018-08-27T06:08:59.628Z,3.03
2018-08-27T06:11:28.559Z,9.23
2018-08-27T06:13:56.969Z,2.40
2018-08-27T06:16:25.435Z,2.40
2018-08-27T06:18:53.936Z,1.70
2018-08-27T06:21:22.402Z,4.80
2018-08-27T06:23:50.854Z,1.50
2018-08-27T06:26:19.305Z,3.13
2018-08-27T06:28:47.741Z,6.07
2018-08-27T06:31:16.222Z,1.93
2018-08-27T06:33:44.654Z,8.73
2018-08-27T06:36:13.121Z,2.13
2018-08-27T06:38:41.782Z,3.10
2018-08-27T06:41:10.340Z,3.17
2018-08-27T06:43:38.771Z,2.57
2018-08-27T06:46:07.649Z,5.80
2018-08-27T06:48:36.089Z,2.27
2018-08-27T06:51:04.599Z,1.50
2018-08-27T06:53:33.054Z,3.03
2018-08-27T06:56:01.999Z,2.03
2018-08-27T06:58:30.516Z,1.50
2018-08-27T07:00:58.995Z,1.43
2018-08-27T07:03:27.459Z,1.20
2018-08-27T07:05:55.923Z,2.17
2018-08-27T07:08:24.360Z,3.13
2018-08-27T07:10:52.814Z,2.00
2018-08-27T07:13:21.297Z,3.27
2018-08-27T07:15:49.743Z,7.00
2018-08-27T07:18:18.186Z,1.30
2018-08-27T07:20:46.635Z,5.63
2018-08-27T07:23:15.080Z,4.20
2018-08-27T07:25:43.551Z,1.30
2018-08-27T07:28:12.035Z,2.33
2018-08-27T07:30:40.480Z,13.13
2018-08-27T07:33:08.926Z,1.40
2018-08-27T07:35:37.471Z,2.10
2018-08-27T07:38:06.026Z,1.83
2018-08-27T07:40:34.483Z,1.60
2018-08-27T07:43:02.921Z,1.37
2018-08-27T07:45:31.355Z,1.93
2018-08-27T07:47:59.813Z,1.43
2018-08-27T07:50:28.306Z,3.43
2018-08-27T07:52:56.760Z,1.50
2018-08-27T07:55:25.485Z,1.30
2018-08-27T07:57:53.956Z,2.97
2018-08-27T08:00:23.770Z,1.53
2018-08-27T08:02:53.806Z,1.50
2018-08-27T08:05:22.559Z,2.10
2018-08-27T08:07:51.242Z,1.20
2018-08-27T08:10:20.309Z,1.10
2018-08-27T08:12:50.586Z,1.13
2018-08-27T08:15:19.474Z,1.20
2018-08-27T08:17:48.146Z,3.43
2018-08-27T08:20:16.611Z,3.50
2018-08-27T08:22:45.203Z,2.43
2018-08-27T08:25:13.883Z,1.50
2018-08-27T08:27:42.325Z,1.17
2018-08-27T08:30:10.803Z,3.03
2018-08-27T08:32:39.256Z,3.90
2018-08-27T08:35:07.783Z,1.33
2018-08-27T08:37:36.241Z,2.40
2018-08-27T08:40:04.847Z,2.60
2018-08-27T08:42:33.498Z,5.03
2018-08-27T08:45:01.968Z,1.10
2018-08-27T08:47:30.436Z,5.83
2018-08-27T08:49:58.916Z,1.57
2018-08-27T08:52:27.358Z,2.73
2018-08-27T08:54:55.805Z,7.20
2018-08-27T08:57:24.311Z,3.17
2018-08-27T08:59:52.782Z,1.60
2018-08-27T09:02:21.217Z,1.10
2018-08-27T09:04:49.660Z,1.33
2018-08-27T09:07:18.132Z,1.50
2018-08-27T09:09:46.570Z,4.97
2018-08-27T09:12:15.022Z,1.53
2018-08-27T09:14:43.507Z,2.30
2018-08-27T09:17:12.040Z,2.17
2018-08-27T09:19:40.425Z,16.17
2018-08-27T09:22:08.865Z,3.17
2018-08-27T09:24:37.320Z,4.67
2018-08-27T09:27:05.816Z,3.80
2018-08-27T09:29:34.246Z,1.23
2018-08-27T09:32:03.179Z,1.07
2018-08-27T09:34:31.637Z,1.60
2018-08-27T09:37:00.177Z,1.60
2018-08-27T09:39:28.527Z,1.53
2018-08-27T09:41:56.969Z,11.27
2018-08-27T09:44:25.439Z,8.73
2018-08-27T09:46:54.026Z,1.53
2018-08-27T09:49:22.421Z,2.10
2018-08-27T09:51:50.860Z,3.50
2018-08-27T09:54:19.333Z,1.60
2018-08-27T09:56:47.793Z,2.90
2018-08-27T09:59:16.235Z,2.53
2018-08-27T10:01:50.085Z,2.13
2018-08-27T10:04:18.499Z,5.63
2018-08-27T10:06:46.968Z,5.90
2018-08-27T10:09:15.447Z,1.67
2018-08-27T10:11:43.880Z,2.30
2018-08-27T10:14:12.337Z,2.30
2018-08-27T10:16:40.791Z,3.20
2018-08-27T10:19:09.255Z,4.00
2018-08-27T10:21:37.705Z,2.13
2018-08-27T10:24:06.293Z,7.30
2018-08-27T10:26:34.924Z,6.30
2018-08-27T10:29:04.139Z,7.50
2018-08-27T10:31:32.587Z,4.90
2018-08-27T10:34:01.245Z,8.80
2018-08-27T10:36:29.703Z,4.80
2018-08-27T10:38:58.157Z,9.23
2018-08-27T10:41:26.639Z,13.47
2018-08-27T10:43:55.106Z,7.00
2018-08-27T10:46:23.591Z,13.30
2018-08-27T10:48:52.054Z,21.07
2018-08-27T10:51:20.544Z,14.90
2018-08-27T10:53:49.007Z,23.40
2018-08-27T10:56:17.465Z,42.30
2018-08-27T10:58:45.932Z,41.07
2018-08-27T11:01:14.423Z,36.53
2018-08-27T11:03:49.401Z,31.57
2018-08-27T11:06:17.933Z,20.37
2018-08-27T11:08:46.377Z,21.27
2018-08-27T11:11:14.859Z,13.17
2018-08-27T11:13:43.415Z,15.33
2018-08-27T11:16:11.897Z,13.37
2018-08-27T11:18:40.313Z,15.70
2018-08-27T11:21:08.798Z,15.93
2018-08-27T11:23:37.269Z,20.17
2018-08-27T11:26:05.758Z,16.60
2018-08-27T11:28:34.200Z,19.20
2018-08-27T11:31:02.663Z,14.50
2018-08-27T11:33:31.155Z,18.60
2018-08-27T11:35:59.599Z,22.03
2018-08-27T11:38:28.096Z,22.10
2018-08-27T11:40:56.570Z,20.10
2018-08-27T11:43:25.123Z,21.33
2018-08-27T11:45:53.524Z,17.13
2018-08-27T11:48:21.985Z,17.67
2018-08-27T11:50:50.596Z,17.53
2018-08-27T11:53:18.930Z,19.10
2018-08-27T11:55:47.367Z,31.87
2018-08-27T11:58:15.884Z,20.13
2018-08-27T12:00:49.686Z,16.50
2018-08-27T12:03:18.185Z,18.50
2018-08-27T12:05:46.644Z,22.00
2018-08-27T12:08:15.131Z,19.07
2018-08-27T12:10:43.587Z,16.20
2018-08-27T12:13:12.029Z,16.33
2018-08-27T12:15:40.495Z,20.17
2018-08-27T12:18:08.966Z,16.53
2018-08-27T12:20:37.426Z,23.77
2018-08-27T12:23:05.971Z,10.27
2018-08-27T12:25:34.437Z,24.53
2018-08-27T12:28:02.912Z,23.53
2018-08-27T12:30:31.390Z,20.13
2018-08-27T12:32:59.820Z,14.97
2018-08-27T12:35:28.285Z,15.37
2018-08-27T12:37:56.752Z,10.87
2018-08-27T12:40:25.248Z,16.37
2018-08-27T12:42:53.691Z,32.00
2018-08-27T12:45:22.183Z,22.10
2018-08-27T12:47:50.668Z,21.93
2018-08-27T12:50:19.198Z,15.87
2018-08-27T12:52:47.664Z,16.80
2018-08-27T12:55:16.171Z,34.43
2018-08-27T12:57:44.630Z,13.90
2018-08-27T13:00:15.860Z,18.20
2018-08-27T13:02:45.521Z,15.73
2018-08-27T13:05:13.979Z,15.30
2018-08-27T13:07:43.287Z,15.23
2018-08-27T13:10:11.775Z,18.47
2018-08-27T13:12:40.404Z,30.43
2018-08-27T13:15:09.183Z,16.40
2018-08-27T13:17:37.696Z,15.73
2018-08-27T13:20:06.230Z,17.20
2018-08-27T13:22:34.736Z,20.70
2018-08-27T13:25:04.021Z,15.77
2018-08-27T13:27:33.355Z,22.37
2018-08-27T13:30:01.919Z,13.60
2018-08-27T13:32:30.415Z,18.90
2018-08-27T13:34:58.869Z,12.33
2018-08-27T13:37:27.316Z,14.03
2018-08-27T13:39:55.846Z,15.30
2018-08-27T13:42:24.305Z,18.83
2018-08-27T13:44:52.758Z,26.00
2018-08-27T13:47:21.240Z,28.27
2018-08-27T13:49:49.699Z,27.83
2018-08-27T13:52:18.150Z,11.30
2018-08-27T13:54:46.610Z,17.27
2018-08-27T13:57:15.066Z,15.47
2018-08-27T13:59:43.576Z,22.40
2018-08-27T14:02:11.970Z,19.20
2018-08-27T14:04:40.444Z,12.73
2018-08-27T14:07:08.881Z,21.13
2018-08-27T14:09:37.346Z,13.80
2018-08-27T14:12:05.793Z,14.90
2018-08-27T14:14:34.233Z,23.13
2018-08-27T14:17:02.729Z,14.93
2018-08-27T14:19:31.260Z,12.37
2018-08-27T14:21:59.762Z,12.23
2018-08-27T14:24:28.257Z,21.40
2018-08-27T14:26:56.739Z,13.27
2018-08-27T14:29:25.470Z,15.90
2018-08-27T14:31:53.985Z,12.80
2018-08-27T14:34:22.482Z,15.57
2018-08-27T14:36:50.946Z,12.57
2018-08-27T14:39:19.394Z,16.90
2018-08-27T14:41:47.948Z,21.10
2018-08-27T14:44:16.350Z,9.47
2018-08-27T14:46:44.823Z,13.80
2018-08-27T14:49:13.278Z,14.23
2018-08-27T14:51:41.725Z,10.50
2018-08-27T14:54:10.194Z,23.63
2018-08-27T14:56:38.670Z,16.87
2018-08-27T14:59:07.106Z,24.63
2018-08-27T15:01:35.545Z,19.90
2018-08-27T15:04:04.077Z,16.53
2018-08-27T15:06:32.520Z,16.33
2018-08-27T15:09:00.998Z,17.07
2018-08-27T15:11:29.471Z,24.47
2018-08-27T15:13:57.909Z,10.83
2018-08-27T15:16:26.992Z,22.47
2018-08-27T15:18:55.459Z,15.63
2018-08-27T15:21:23.899Z,16.77
2018-08-27T15:23:52.424Z,15.50
2018-08-27T15:26:20.860Z,13.70
2018-08-27T15:28:49.340Z,14.80
2018-08-27T15:31:17.804Z,15.47
2018-08-27T15:33:46.257Z,19.10
2018-08-27T15:36:14.718Z,17.70
2018-08-27T15:38:43.309Z,16.23
2018-08-27T15:41:11.682Z,13.67
2018-08-27T15:43:40.130Z,15.07
2018-08-27T15:46:13.962Z,17.83
2018-08-27T15:48:42.406Z,18.00
2018-08-27T15:51:10.909Z,14.80
2018-08-27T15:53:39.353Z,11.73
2018-08-27T15:56:07.847Z,15.73
2018-08-27T15:58:36.285Z,19.93
2018-08-27T16:01:04.975Z,18.70
2018-08-27T16:03:33.407Z,19.07
2018-08-27T16:06:01.855Z,20.07
2018-08-27T16:08:30.311Z,16.40
2018-08-27T16:10:58.774Z,13.00
2018-08-27T16:13:27.217Z,12.10
2018-08-27T16:15:55.667Z,18.00
2018-08-27T16:18:24.104Z,19.53
2018-08-27T16:20:52.539Z,8.73
2018-08-27T16:23:21.049Z,26.90
2018-08-27T16:25:49.516Z,28.07
2018-08-27T16:28:18.023Z,17.00
2018-08-27T16:30:46.451Z,18.53
2018-08-27T16:33:14.914Z,29.23
2018-08-27T16:35:43.343Z,16.73
2018-08-27T16:38:11.815Z,15.57
2018-08-27T16:40:40.272Z,29.73
2018-08-27T16:43:08.735Z,28.40
2018-08-27T16:45:37.197Z,25.03
2018-08-27T16:48:05.703Z,20.67
2018-08-27T16:50:34.200Z,16.73
2018-08-27T16:53:02.669Z,19.97
2018-08-27T16:55:31.156Z,26.33
2018-08-27T16:57:59.691Z,19.83
2018-08-27T17:00:28.158Z,15.53
2018-08-27T17:02:56.662Z,14.73
2018-08-27T17:05:25.178Z,16.03
2018-08-27T17:07:53.681Z,31.33
2018-08-27T17:10:22.226Z,14.83
2018-08-27T17:12:50.663Z,19.63
2018-08-27T17:15:19.127Z,13.07
2018-08-27T17:17:47.622Z,11.90
2018-08-27T17:20:16.183Z,23.07
2018-08-27T17:22:44.744Z,23.87
2018-08-27T17:25:13.226Z,14.37
2018-08-27T17:27:41.776Z,14.00
2018-08-27T17:30:10.298Z,16.50
2018-08-27T17:32:38.777Z,23.60
2018-08-27T17:35:07.628Z,19.13
2018-08-27T17:37:36.126Z,15.30
2018-08-27T17:40:04.636Z,21.10
2018-08-27T17:42:33.149Z,13.20
2018-08-27T17:45:01.775Z,17.67
2018-08-27T17:47:30.207Z,16.40
2018-08-27T17:49:58.837Z,25.40
2018-08-27T17:52:27.327Z,17.30
2018-08-27T17:54:55.793Z,25.10
2018-08-27T17:57:24.325Z,14.87
2018-08-27T17:59:52.833Z,24.10
2018-08-27T18:02:21.326Z,11.53
2018-08-27T18:04:49.945Z,11.17
2018-08-27T18:07:18.392Z,20.23
2018-08-27T18:09:46.842Z,16.40
2018-08-27T18:12:15.291Z,23.30
2018-08-27T18:14:43.806Z,27.60
2018-08-27T18:17:12.335Z,19.87
2018-08-27T18:19:40.892Z,20.67
2018-08-27T18:22:09.262Z,21.70
2018-08-27T18:24:37.767Z,27.23
2018-08-27T18:27:06.258Z,19.30
2018-08-27T18:29:34.785Z,16.10
2018-08-27T18:32:03.338Z,16.40
2018-08-27T18:34:31.828Z,19.77
2018-08-27T18:37:00.265Z,13.07
2018-08-27T18:39:28.788Z,15.40
2018-08-27T18:41:57.262Z,19.30
2018-08-27T18:44:25.803Z,27.77
2018-08-27T18:46:54.295Z,19.63
2018-08-27T18:49:22.777Z,33.00
2018-08-27T18:51:51.273Z,10.93
2018-08-27T18:54:19.706Z,29.10
2018-08-27T18:56:48.181Z,13.70
2018-08-27T18:59:16.651Z,20.53
2018-08-27T19:01:45.239Z,16.43
2018-08-27T19:04:13.730Z,23.97
2018-08-27T19:06:42.266Z,21.83
2018-08-27T19:09:10.832Z,18.50
2018-08-27T19:11:39.331Z,16.80
2018-08-27T19:14:08.110Z,20.47
2018-08-27T19:16:37.138Z,14.13
2018-08-27T19:19:05.627Z,24.30
2018-08-27T19:21:34.095Z,13.07
2018-08-27T19:24:02.631Z,17.27
2018-08-27T19:26:31.039Z,18.43
2018-08-27T19:28:59.556Z,26.13
2018-08-27T19:31:27.997Z,21.00
2018-08-27T19:33:56.465Z,23.90
2018-08-27T19:36:25.080Z,22.17
2018-08-27T19:38:53.383Z,16.53
2018-08-27T19:41:21.865Z,18.20
2018-08-27T19:43:50.330Z,19.10
2018-08-27T19:46:18.903Z,14.03
2018-08-27T19:48:47.334Z,19.37
2018-08-27T19:51:15.793Z,18.13
2018-08-27T19:53:44.278Z,29.03
2018-08-27T19:56:12.746Z,16.10
2018-08-27T19:58:41.269Z,17.33
2018-08-27T20:01:09.792Z,18.67
2018-08-27T20:03:38.305Z,17.50
2018-08-27T20:06:06.805Z,40.73
2018-08-27T20:08:35.343Z,21.03
2018-08-27T20:11:03.821Z,19.03
2018-08-27T20:13:32.326Z,18.20
2018-08-27T20:16:00.773Z,19.30
2018-08-27T20:18:29.238Z,15.77
2018-08-27T20:20:57.734Z,14.13
2018-08-27T20:23:26.199Z,20.10
2018-08-27T20:25:54.752Z,14.73
2018-08-27T20:28:23.248Z,18.80
2018-08-27T20:30:51.752Z,20.00
2018-08-27T20:33:20.211Z,17.07
2018-08-27T20:35:48.682Z,14.43
2018-08-27T20:38:17.173Z,14.10
2018-08-27T20:40:45.677Z,16.80
2018-08-27T20:43:14.198Z,11.87
2018-08-27T20:45:42.721Z,13.80
2018-08-27T20:48:11.194Z,15.90
2018-08-27T20:50:39.668Z,13.10
2018-08-27T20:53:08.203Z,15.77
2018-08-27T20:55:36.663Z,13.00
2018-08-27T20:58:05.168Z,17.90
2018-08-27T21:00:33.627Z,14.13
2018-08-27T21:03:02.103Z,16.50
2018-08-27T21:05:30.575Z,29.07
2018-08-27T21:07:59.067Z,13.57
2018-08-27T21:10:27.571Z,11.70
2018-08-27T21:12:56.023Z,10.47
2018-08-27T21:15:24.487Z,14.27
2018-08-27T21:17:53.819Z,19.50
2018-08-27T21:20:23.269Z,12.40
2018-08-27T21:22:51.771Z,14.67
2018-08-27T21:25:20.300Z,12.93
2018-08-27T21:27:50.626Z,17.90
2018-08-27T21:30:20.450Z,14.97
2018-08-27T21:32:48.947Z,9.17
2018-08-27T21:35:17.436Z,11.27
2018-08-27T21:37:45.918Z,23.70
2018-08-27T21:40:14.417Z,15.00
2018-08-27T21:42:42.904Z,13.70
2018-08-27T21:45:11.381Z,11.33
2018-08-27T21:47:39.887Z,12.43
2018-08-27T21:50:08.470Z,17.07
2018-08-27T21:52:37.103Z,12.37
2018-08-27T21:55:05.625Z,8.20
2018-08-27T21:57:34.082Z,16.50
2018-08-27T22:00:02.562Z,18.00
2018-08-27T22:02:36.354Z,13.00
2018-08-27T22:05:04.958Z,12.07
2018-08-27T22:07:33.487Z,12.73
2018-08-27T22:10:01.985Z,23.57
2018-08-27T22:12:30.454Z,15.47
2018-08-27T22:14:58.966Z,15.10
2018-08-27T22:17:27.467Z,18.13
2018-08-27T22:19:55.930Z,11.23
2018-08-27T22:22:24.435Z,14.20
2018-08-27T22:24:52.914Z,20.93
2018-08-27T22:27:21.403Z,12.20
2018-08-27T22:29:49.877Z,11.67
2018-08-27T22:32:18.372Z,23.33
2018-08-27T22:34:53.173Z,16.73
2018-08-27T22:37:21.629Z,13.30
2018-08-27T22:39:50.071Z,15.13
2018-08-27T22:42:18.657Z,16.07
2018-08-27T22:44:47.110Z,14.77
2018-08-27T22:47:15.564Z,24.40
2018-08-27T22:49:44.045Z,21.27
2018-08-27T22:52:13.203Z,22.03
2018-08-27T22:54:41.666Z,18.57
2018-08-27T22:57:10.171Z,25.70
2018-08-27T22:59:38.744Z,23.53
2018-08-27T23:02:07.231Z,21.27
2018-08-27T23:04:41.078Z,21.97
2018-08-27T23:07:09.573Z,19.47
2018-08-27T23:09:38.043Z,18.90
2018-08-27T23:12:06.546Z,20.97
2018-08-27T23:14:34.999Z,17.90
2018-08-27T23:17:03.481Z,13.50
2018-08-27T23:19:32.006Z,10.97
2018-08-27T23:22:00.449Z,20.20
2018-08-27T23:24:28.941Z,14.43
2018-08-27T23:26:57.405Z,18.33
2018-08-27T23:29:25.857Z,30.50
2018-08-27T23:31:54.338Z,26.13
2018-08-27T23:34:22.807Z,25.83
2018-08-27T23:36:51.290Z,14.50
2018-08-27T23:39:19.774Z,21.20
2018-08-27T23:41:48.265Z,25.60
2018-08-27T23:44:16.748Z,20.77
2018-08-27T23:46:45.227Z,16.60
2018-08-27T23:49:13.680Z,24.77
2018-08-27T23:51:42.135Z,20.80
2018-08-27T23:54:10.601Z,26.37
2018-08-27T23:56:39.065Z,32.17
2018-08-27T23:59:07.617Z,21.03
